Saturday, October 20, 2018, 7:16 AM EDT
Back to Local

KOXC, Oxford, Waterbury-oxford Airport

Location: Oxford, CT, United States Lat: 41.483
Local Time: 7:16 AM EDT (11:16 GMT) Lon: -73.133
Time Zone: US/Eastern Elev: 725 ft

Show me the last for .
Show Decoded

2018-10-20 07:05 METAR KOXC 201105Z COR 22007KT 7SM FEW007 BKN031 OVC045 10/09 A2972 RMK AO2 $ =
2018-10-20 06:51 METAR KOXC 201051Z 23008KT 10SM BKN031 OVC047 10/09 A2973 RMK AO2 SLP081
                 T01000094 $ =
2018-10-20 06:08 METAR KOXC 201008Z VRB06KT 10SM FEW008 OVC060 10/09 A2973 RMK AO2 $ =
2018-10-20 05:51 METAR KOXC 200951Z COR VRB06KT 10SM OVC060 10/09 A2974 RMK AO2 SLP083 T01000089
                 PWINO $ =
2018-10-20 04:51 METAR KOXC 200851Z AUTO 21005KT OVC070 09/09 A2976 RMK AO2 SLP092 P0002 60002
                 T00940089 56025 PWINO $ =
2018-10-20 03:51 METAR KOXC 200751Z AUTO 20006KT BKN070 OVC090 10/08 A2978 RMK AO2 PRESFR SLP096
                 T01000083 PWINO $ =
2018-10-20 02:51 METAR KOXC 200651Z AUTO 25004KT BKN070 OVC085 11/08 A2981 RMK AO2 PRESFR SLP106
                 T01110078 PWINO $ =
2018-10-20 01:51 METAR KOXC 200551Z AUTO 19008KT SCT100 SCT120 11/07 A2984 RMK AO2 SLP116
                 T01110067 10111 20094 58030 PWINO $ =
2018-10-20 00:51 METAR KOXC 200451Z AUTO 20006KT CLR 11/06 A2986 RMK AO2 SLP127 T01060061
                 401441028 PWINO $ =
2018-10-19 23:51 METAR KOXC 200351Z AUTO 22004KT CLR 10/07 A2991 RMK AO2 SLP142 T01000067 PWINO $
                 =
2018-10-19 22:51 METAR KOXC 200251Z AUTO 20008KT CLR 10/06 A2993 RMK AO2 SLP147 T01000061 58031
                 PWINO $ =
2018-10-19 21:51 METAR KOXC 200151Z AUTO 20005KT CLR 09/04 A2997 RMK AO2 SLP163 T00940044 PWINO $
                 =
2018-10-19 20:51 METAR KOXC 200051Z VRB04KT 10SM CLR 10/03 A2999 RMK AO2 SLP171 T01000028 $ =
2018-10-19 19:51 METAR KOXC 192351Z VRB04KT 10SM CLR 10/02 A3002 RMK AO2 SLP182 T01000022 10144
                 20100 58006 $ =
2018-10-19 18:51 METAR KOXC 192251Z 22006KT 10SM CLR 11/02 A3002 RMK AO2 SLP185 T01060022 $ =
2018-10-19 17:51 METAR KOXC 192151Z 21005KT 10SM CLR 11/03 A3004 RMK AO2 SLP190 T01110028 $ =
2018-10-19 16:51 METAR KOXC 192051Z 22007KT 190V260 10SM CLR 12/03 A3004 RMK AO2 SLP188 T01220028
                 56027 $ =
2018-10-19 15:51 METAR KOXC 191951Z 22008KT 10SM CLR 13/02 A3006 RMK AO2 SLP195 T01330022 $ =
2018-10-19 14:51 METAR KOXC 191851Z 21008KT 10SM CLR 14/01 A3008 RMK AO2 SLP202 T01440006 $ =
2018-10-19 13:51 METAR KOXC 191751Z VRB05KT 10SM CLR 13/01 A3012 RMK AO2 SLP216 T01330011 10139
                 21022 58034 $ =
2018-10-19 12:51 METAR KOXC 191651Z 24007KT 10SM CLR 12/02 A3015 RMK AO2 SLP227 T01170017 $ =
2018-10-19 11:51 METAR KOXC 191551Z VRB05KT 10SM CLR 10/01 A3020 RMK AO2 SLP243 T01000006 $ =
2018-10-19 10:51 METAR KOXC 191451Z 21006KT 10SM CLR 08/01 A3022 RMK AO2 SLP252 T00830006 58015 $
                 =
2018-10-19 09:51 METAR KOXC 191351Z 22006KT 10SM CLR 06/00 A3024 RMK AO2 SLP260 T00560000 $ =
2018-10-19 08:51 METAR KOXC 191251Z 00000KT 10SM CLR 04/01 A3026 RMK AO2 SLP265 T00390011 $ =
2018-10-19 07:51 METAR KOXC 191151Z 00000KT 10SM CLR M02/M03 A3027 RMK AO2 SLP269 T10221028 10011
                 21028 57001 $ =

Support USWX by starting your Amazon purchase here.